sensor_id;sensor_type;location;lat;lon;timestamp;pressure;altitude;pressure_sealevel;temperature;humidity
15914;BME280;8055;51.930;8.840;2023-05-09T00:00:45;75845.38;;;-145.72;99.09
15914;BME280;8055;51.930;8.840;2023-05-09T00:03:11;75847.44;;;-145.72;100.00
15914;BME280;8055;51.930;8.840;2023-05-09T00:05:39;75861.94;;;-145.72;100.00
15914;BME280;8055;51.930;8.840;2023-05-09T00:08:05;75861.94;;;-145.72;99.64
15914;BME280;8055;51.930;8.840;2023-05-09T00:10:31;75861.94;;;-145.72;100.00
15914;BME280;8055;51.930;8.840;2023-05-09T00:12:56;75870.22;;;-145.72;100.00
15914;BME280;8055;51.930;8.840;2023-05-09T00:15:23;75864.00;;;-145.72;99.29
15914;BME280;8055;51.930;8.840;2023-05-09T00:17:49;75866.06;;;-145.72;100.00
15914;BME280;8055;51.930;8.840;2023-05-09T00:20:15;75880.56;;;-145.72;99.52
15914;BME280;8055;51.930;8.840;2023-05-09T00:22:41;75882.63;;;-145.72;100.00
15914;BME280;8055;51.930;8.840;2023-05-09T00:25:10;75876.44;;;-145.72;100.00
15914;BME280;8055;51.930;8.840;2023-05-09T00:27:36;75899.19;;;-145.72;99.36
15914;BME280;8055;51.930;8.840;2023-05-09T00:30:02;75892.97;;;-145.72;100.00
15914;BME280;8055;51.930;8.840;2023-05-09T00:32:28;75897.13;;;-145.72;100.00
15914;BME280;8055;51.930;8.840;2023-05-09T00:34:54;75890.91;;;-145.72;99.85
15914;BME280;8055;51.930;8.840;2023-05-09T00:37:19;75899.19;;;-145.72;100.00
15914;BME280;8055;51.930;8.840;2023-05-09T00:39:46;75899.19;;;-145.72;100.00
15914;BME280;8055;51.930;8.840;2023-05-09T00:42:12;75897.13;;;-145.72;100.00
15914;BME280;8055;51.930;8.840;2023-05-09T00:44:37;75899.19;;;-145.72;99.83
15914;BME280;8055;51.930;8.840;2023-05-09T00:47:02;75897.13;;;-145.72;99.05
15914;BME280;8055;51.930;8.840;2023-05-09T00:49:28;75903.31;;;-145.72;99.74
15914;BME280;8055;51.930;8.840;2023-05-09T00:51:54;75901.25;;;-145.72;100.00
15914;BME280;8055;51.930;8.840;2023-05-09T00:54:20;75901.25;;;-145.72;99.11
15914;BME280;8055;51.930;8.840;2023-05-09T00:56:45;75895.03;;;-145.72;99.37
15914;BME280;8055;51.930;8.840;2023-05-09T00:59:10;75899.19;;;-145.72;99.16
15914;BME280;8055;51.930;8.840;2023-05-09T01:01:36;75907.47;;;-145.72;100.00
15914;BME280;8055;51.930;8.840;2023-05-09T01:04:01;75907.47;;;-145.72;100.00
15914;BME280;8055;51.930;8.840;2023-05-09T01:07:03;75903.31;;;-145.72;100.00
15914;BME280;8055;51.930;8.840;2023-05-09T01:17:17;75907.47;;;-145.72;100.00
15914;BME280;8055;51.930;8.840;2023-05-09T01:19:58;75909.53;;;-145.72;100.00
15914;BME280;8055;51.930;8.840;2023-05-09T01:22:30;75909.53;;;-145.72;100.00
15914;BME280;8055;51.930;8.840;2023-05-09T01:28:18;75921.94;;;-145.72;100.00
15914;BME280;8055;51.930;8.840;2023-05-09T01:30:50;75915.75;;;-145.72;100.00
15914;BME280;8055;51.930;8.840;2023-05-09T01:33:19;75917.81;;;-145.72;100.00
15914;BME280;8055;51.930;8.840;2023-05-09T01:35:49;75928.16;;;-145.72;100.00
15914;BME280;8055;51.930;8.840;2023-05-09T01:38:17;75921.94;;;-145.72;100.00
15914;BME280;8055;51.930;8.840;2023-05-09T01:40:46;75915.75;;;-145.72;100.00
15914;BME280;8055;51.930;8.840;2023-05-09T01:43:13;75924.03;;;-145.72;100.00
15914;BME280;8055;51.930;8.840;2023-05-09T01:45:41;75919.88;;;-145.72;100.00
15914;BME280;8055;51.930;8.840;2023-05-09T01:48:08;75930.22;;;-145.72;100.00
15914;BME280;8055;51.930;8.840;2023-05-09T01:50:35;75924.03;;;-145.72;100.00
15914;BME280;8055;51.930;8.840;2023-05-09T01:53:02;75930.22;;;-145.72;100.00
15914;BME280;8055;51.930;8.840;2023-05-09T01:55:31;75936.44;;;-145.72;100.00
15914;BME280;8055;51.930;8.840;2023-05-09T01:57:58;75944.72;;;-145.72;100.00
15914;BME280;8055;51.930;8.840;2023-05-09T02:00:24;75946.78;;;-145.72;100.00
15914;BME280;8055;51.930;8.840;2023-05-09T02:02:51;75950.91;;;-145.72;100.00
15914;BME280;8055;51.930;8.840;2023-05-09T02:05:17;75959.19;;;-145.72;100.00
15914;BME280;8055;51.930;8.840;2023-05-09T02:07:44;75961.25;;;-145.72;100.00
15914;BME280;8055;51.930;8.840;2023-05-09T02:10:11;75959.19;;;-145.72;100.00
15914;BME280;8055;51.930;8.840;2023-05-09T02:12:37;75950.91;;;-145.72;100.00
15914;BME280;8055;51.930;8.840;2023-05-09T02:15:05;75953.00;;;-145.72;100.00
15914;BME280;8055;51.930;8.840;2023-05-09T02:17:30;75953.00;;;-145.72;100.00
15914;BME280;8055;51.930;8.840;2023-05-09T02:19:56;75948.84;;;-145.72;100.00
15914;BME280;8055;51.930;8.840;2023-05-09T02:22:22;75942.63;;;-145.72;100.00
15914;BME280;8055;51.930;8.840;2023-05-09T02:24:47;75953.00;;;-145.72;100.00
15914;BME280;8055;51.930;8.840;2023-05-09T02:27:13;75946.78;;;-145.72;100.00
15914;BME280;8055;51.930;8.840;2023-05-09T02:29:45;75936.44;;;-145.72;100.00
15914;BME280;8055;51.930;8.840;2023-05-09T02:32:14;75934.38;;;-145.72;100.00
15914;BME280;8055;51.930;8.840;2023-05-09T02:34:41;75936.44;;;-145.72;100.00
15914;BME280;8055;51.930;8.840;2023-05-09T02:37:09;75932.28;;;-145.72;100.00
15914;BME280;8055;51.930;8.840;2023-05-09T02:39:34;75934.38;;;-145.72;100.00
15914;BME280;8055;51.930;8.840;2023-05-09T02:42:07;75944.72;;;-145.72;100.00
15914;BME280;8055;51.930;8.840;2023-05-09T02:44:33;75948.84;;;-145.72;100.00
15914;BME280;8055;51.930;8.840;2023-05-09T02:46:59;75946.78;;;-145.72;100.00
15914;BME280;8055;51.930;8.840;2023-05-09T02:49:25;75940.56;;;-145.72;100.00
15914;BME280;8055;51.930;8.840;2023-05-09T02:51:50;75936.44;;;-145.72;100.00
15914;BME280;8055;51.930;8.840;2023-05-09T02:54:16;75930.22;;;-145.72;100.00
15914;BME280;8055;51.930;8.840;2023-05-09T02:56:42;75932.28;;;-145.72;100.00
15914;BME280;8055;51.930;8.840;2023-05-09T02:59:07;75934.38;;;-145.72;100.00
15914;BME280;8055;51.930;8.840;2023-05-09T03:01:33;75928.16;;;-145.72;100.00
15914;BME280;8055;51.930;8.840;2023-05-09T03:03:58;75926.09;;;-145.72;100.00
15914;BME280;8055;51.930;8.840;2023-05-09T03:06:23;75936.44;;;-145.72;100.00
15914;BME280;8055;51.930;8.840;2023-05-09T03:08:49;75932.28;;;-145.72;100.00
15914;BME280;8055;51.930;8.840;2023-05-09T03:11:14;75932.28;;;-145.72;100.00
15914;BME280;8055;51.930;8.840;2023-05-09T03:13:39;75940.56;;;-145.72;100.00
15914;BME280;8055;51.930;8.840;2023-05-09T03:16:05;75938.50;;;-145.72;100.00
15914;BME280;8055;51.930;8.840;2023-05-09T03:18:31;75944.72;;;-145.72;100.00
15914;BME280;8055;51.930;8.840;2023-05-09T03:20:56;75944.72;;;-145.72;99.81
15914;BME280;8055;51.930;8.840;2023-05-09T03:23:22;75944.72;;;-145.72;100.00
15914;BME280;8055;51.930;8.840;2023-05-09T03:25:47;75940.56;;;-145.72;100.00
15914;BME280;8055;51.930;8.840;2023-05-09T03:28:13;75946.78;;;-145.72;100.00
15914;BME280;8055;51.930;8.840;2023-05-09T03:30:38;75948.84;;;-145.72;99.25
15914;BME280;8055;51.930;8.840;2023-05-09T03:33:03;75944.72;;;-145.72;99.42
15914;BME280;8055;51.930;8.840;2023-05-09T03:35:30;75940.56;;;-145.72;100.00
15914;BME280;8055;51.930;8.840;2023-05-09T03:37:55;75948.84;;;-145.72;99.70
15914;BME280;8055;51.930;8.840;2023-05-09T03:40:21;75950.91;;;-145.72;100.00
15914;BME280;8055;51.930;8.840;2023-05-09T03:42:46;75957.13;;;-145.72;100.00
15914;BME280;8055;51.930;8.840;2023-05-09T03:45:12;75950.91;;;-145.72;100.00
15914;BME280;8055;51.930;8.840;2023-05-09T03:47:37;75944.72;;;-145.72;100.00
15914;BME280;8055;51.930;8.840;2023-05-09T03:50:03;75938.50;;;-145.72;100.00
15914;BME280;8055;51.930;8.840;2023-05-09T03:52:28;75942.63;;;-145.72;100.00
15914;BME280;8055;51.930;8.840;2023-05-09T03:54:54;75946.78;;;-145.72;100.00
15914;BME280;8055;51.930;8.840;2023-05-09T03:57:19;75932.28;;;-145.72;100.00
15914;BME280;8055;51.930;8.840;2023-05-09T03:59:45;75936.44;;;-145.72;100.00
15914;BME280;8055;51.930;8.840;2023-05-09T04:02:10;75930.22;;;-145.72;98.74
15914;BME280;8055;51.930;8.840;2023-05-09T04:04:36;75917.81;;;-145.72;99.65
15914;BME280;8055;51.930;8.840;2023-05-09T04:07:01;75924.03;;;-145.72;99.76
15914;BME280;8055;51.930;8.840;2023-05-09T04:09:27;75911.59;;;-145.72;98.97
15914;BME280;8055;51.930;8.840;2023-05-09T04:11:53;75915.75;;;-145.72;98.90
15914;BME280;8055;51.930;8.840;2023-05-09T04:14:18;75911.59;;;-145.72;98.53
15914;BME280;8055;51.930;8.840;2023-05-09T04:16:44;75911.59;;;-145.72;99.86
15914;BME280;8055;51.930;8.840;2023-05-09T04:19:09;75915.75;;;-145.72;99.00
15914;BME280;8055;51.930;8.840;2023-05-09T04:21:34;75907.47;;;-145.72;99.80
15914;BME280;8055;51.930;8.840;2023-05-09T04:24:00;75897.13;;;-145.72;99.58
15914;BME280;8055;51.930;8.840;2023-05-09T04:26:25;75888.84;;;-145.72;99.91
15914;BME280;8055;51.930;8.840;2023-05-09T04:28:51;75886.78;;;-145.72;100.00
15914;BME280;8055;51.930;8.840;2023-05-09T04:31:17;75899.19;;;-145.72;99.25
15914;BME280;8055;51.930;8.840;2023-05-09T04:33:43;75886.78;;;-145.72;100.00
15914;BME280;8055;51.930;8.840;2023-05-09T04:36:08;75884.69;;;-145.72;99.44
15914;BME280;8055;51.930;8.840;2023-05-09T04:38:34;75882.63;;;-145.72;99.62
15914;BME280;8055;51.930;8.840;2023-05-09T04:41:00;75886.78;;;-145.72;99.30
15914;BME280;8055;51.930;8.840;2023-05-09T04:43:25;75874.34;;;-145.72;99.54
15914;BME280;8055;51.930;8.840;2023-05-09T04:45:52;75866.06;;;-145.72;98.18
15914;BME280;8055;51.930;8.840;2023-05-09T04:48:18;75859.88;;;-145.72;97.67
15914;BME280;8055;51.930;8.840;2023-05-09T04:50:43;75855.72;;;-145.72;98.58
15914;BME280;8055;51.930;8.840;2023-05-09T04:53:08;75855.72;;;-145.72;99.47
15914;BME280;8055;51.930;8.840;2023-05-09T04:55:35;75851.59;;;-145.72;97.63
15914;BME280;8055;51.930;8.840;2023-05-09T04:58:00;75847.44;;;-145.72;98.07
15914;BME280;8055;51.930;8.840;2023-05-09T05:00:26;75843.31;;;-145.72;98.34
15914;BME280;8055;51.930;8.840;2023-05-09T05:02:51;75845.38;;;-145.72;99.22
15914;BME280;8055;51.930;8.840;2023-05-09T05:05:17;75835.03;;;-145.72;98.47
15914;BME280;8055;51.930;8.840;2023-05-09T05:07:42;75830.91;;;-145.72;98.48
15914;BME280;8055;51.930;8.840;2023-05-09T05:10:08;75837.09;;;-145.72;99.75
15914;BME280;8055;51.930;8.840;2023-05-09T05:12:33;75830.91;;;-145.72;99.63
15914;BME280;8055;51.930;8.840;2023-05-09T05:14:59;75830.91;;;-145.72;100.00
15914;BME280;8055;51.930;8.840;2023-05-09T05:17:24;75820.56;;;-145.72;100.00
15914;BME280;8055;51.930;8.840;2023-05-09T05:19:50;75812.28;;;-145.72;100.00
15914;BME280;8055;51.930;8.840;2023-05-09T05:22:15;75814.34;;;-145.72;100.00
15914;BME280;8055;51.930;8.840;2023-05-09T05:24:40;75801.94;;;-145.72;100.00
15914;BME280;8055;51.930;8.840;2023-05-09T05:27:06;75795.72;;;-145.72;100.00
15914;BME280;8055;51.930;8.840;2023-05-09T05:29:31;75791.59;;;-145.72;100.00
15914;BME280;8055;51.930;8.840;2023-05-09T05:31:57;75795.72;;;-145.72;100.00
15914;BME280;8055;51.930;8.840;2023-05-09T05:34:22;75783.31;;;-145.72;99.99
15914;BME280;8055;51.930;8.840;2023-05-09T05:36:47;75783.31;;;-145.72;99.91
15914;BME280;8055;51.930;8.840;2023-05-09T05:39:13;75781.25;;;-145.72;100.00
15914;BME280;8055;51.930;8.840;2023-05-09T05:41:38;75777.09;;;-145.72;100.00
15914;BME280;8055;51.930;8.840;2023-05-09T05:44:04;75789.50;;;-145.72;100.00
15914;BME280;8055;51.930;8.840;2023-05-09T05:46:29;75785.38;;;-145.72;100.00
15914;BME280;8055;51.930;8.840;2023-05-09T05:48:55;75783.31;;;-145.72;100.00
15914;BME280;8055;51.930;8.840;2023-05-09T05:51:20;75779.16;;;-145.72;100.00
15914;BME280;8055;51.930;8.840;2023-05-09T05:53:46;75775.03;;;-145.72;100.00
15914;BME280;8055;51.930;8.840;2023-05-09T05:56:11;75762.63;;;-145.72;100.00
15914;BME280;8055;51.930;8.840;2023-05-09T05:58:36;75758.47;;;-145.72;100.00
15914;BME280;8055;51.930;8.840;2023-05-09T06:01:02;75733.66;;;-145.72;100.00
15914;BME280;8055;51.930;8.840;2023-05-09T06:03:28;75719.16;;;-145.72;100.00
15914;BME280;8055;51.930;8.840;2023-05-09T06:05:53;75710.88;;;-145.72;100.00
15914;BME280;8055;51.930;8.840;2023-05-09T06:08:20;75690.19;;;-145.72;100.00
15914;BME280;8055;51.930;8.840;2023-05-09T06:10:45;75677.78;;;-145.72;100.00
15914;BME280;8055;51.930;8.840;2023-05-09T06:13:10;75669.50;;;-145.72;100.00
15914;BME280;8055;51.930;8.840;2023-05-09T06:15:36;75650.88;;;-145.72;100.00
15914;BME280;8055;51.930;8.840;2023-05-09T06:18:01;75632.25;;;-145.72;100.00
15914;BME280;8055;51.930;8.840;2023-05-09T06:20:27;75628.13;;;-145.72;100.00
15914;BME280;8055;51.930;8.840;2023-05-09T06:22:52;75621.91;;;-145.72;100.00
15914;BME280;8055;51.930;8.840;2023-05-09T06:25:18;75613.63;;;-145.72;100.00
15914;BME280;8055;51.930;8.840;2023-05-09T06:27:43;75603.28;;;-145.72;100.00
15914;BME280;8055;51.930;8.840;2023-05-09T06:30:09;75601.22;;;-145.72;100.00
15914;BME280;8055;51.930;8.840;2023-05-09T06:32:34;75592.94;;;-145.72;100.00
15914;BME280;8055;51.930;8.840;2023-05-09T06:35:00;75590.88;;;-145.72;100.00
15914;BME280;8055;51.930;8.840;2023-05-09T06:37:25;75588.81;;;-145.72;100.00
15914;BME280;8055;51.930;8.840;2023-05-09T06:39:50;75572.25;;;-145.72;100.00
15914;BME280;8055;51.930;8.840;2023-05-09T06:42:16;75547.41;;;-145.72;100.00
15914;BME280;8055;51.930;8.840;2023-05-09T06:44:41;75528.81;;;-145.72;100.00
15914;BME280;8055;51.930;8.840;2023-05-09T06:47:08;75495.69;;;-145.72;100.00
15914;BME280;8055;51.930;8.840;2023-05-09T06:49:34;75481.22;;;-145.72;99.80
15914;BME280;8055;51.930;8.840;2023-05-09T06:51:59;75464.66;;;-145.72;96.40
15914;BME280;8055;51.930;8.840;2023-05-09T06:54:25;75450.19;;;-145.72;92.54
15914;BME280;8055;51.930;8.840;2023-05-09T06:56:50;75429.47;;;-145.72;92.43
15914;BME280;8055;51.930;8.840;2023-05-09T06:59:16;75429.47;;;-145.72;87.43
15914;BME280;8055;51.930;8.840;2023-05-09T07:01:42;75421.22;;;-145.72;88.52
15914;BME280;8055;51.930;8.840;2023-05-09T07:04:07;75408.78;;;-145.72;92.68
15914;BME280;8055;51.930;8.840;2023-05-09T07:06:32;75392.25;;;-145.72;89.06
15914;BME280;8055;51.930;8.840;2023-05-09T07:08:58;75390.16;;;-145.72;87.89
15914;BME280;8055;51.930;8.840;2023-05-09T07:11:23;75375.69;;;-145.72;88.14
15914;BME280;8055;51.930;8.840;2023-05-09T07:13:48;75361.22;;;-145.72;85.69
15914;BME280;8055;51.930;8.840;2023-05-09T07:16:14;75344.66;;;-145.72;87.65
15914;BME280;8055;51.930;8.840;2023-05-09T07:18:40;75336.38;;;-145.72;87.76
15914;BME280;8055;51.930;8.840;2023-05-09T07:21:05;75315.69;;;-145.72;86.33
15914;BME280;8055;51.930;8.840;2023-05-09T07:23:31;75292.94;;;-145.72;85.28
15914;BME280;8055;51.930;8.840;2023-05-09T07:25:57;75282.59;;;-145.72;85.36
15914;BME280;8055;51.930;8.840;2023-05-09T07:28:23;75270.16;;;-145.72;86.87
15914;BME280;8055;51.930;8.840;2023-05-09T07:30:48;75245.34;;;-145.72;84.95
15914;BME280;8055;51.930;8.840;2023-05-09T07:33:14;75237.06;;;-145.72;85.57
15914;BME280;8055;51.930;8.840;2023-05-09T07:35:39;75222.59;;;-145.72;83.47
15914;BME280;8055;51.930;8.840;2023-05-09T07:38:04;75220.50;;;-145.72;81.26
15914;BME280;8055;51.930;8.840;2023-05-09T07:40:31;75210.16;;;-145.72;83.83
15914;BME280;8055;51.930;8.840;2023-05-09T07:42:57;75181.22;;;-145.72;83.94
15914;BME280;8055;51.930;8.840;2023-05-09T07:45:23;75154.31;;;-145.72;83.04
15914;BME280;8055;51.930;8.840;2023-05-09T07:47:48;75137.75;;;-145.72;84.09
15914;BME280;8055;51.930;8.840;2023-05-09T07:50:14;75125.34;;;-145.72;83.32
15914;BME280;8055;51.930;8.840;2023-05-09T07:52:39;75100.53;;;-145.72;83.68
15914;BME280;8055;51.930;8.840;2023-05-09T07:55:05;75094.31;;;-145.72;82.94
15914;BME280;8055;51.930;8.840;2023-05-09T07:57:30;75077.75;;;-145.72;85.62
15914;BME280;8055;51.930;8.840;2023-05-09T07:59:56;75057.06;;;-145.72;89.09
15914;BME280;8055;51.930;8.840;2023-05-09T08:02:21;75034.31;;;-145.72;87.91
15914;BME280;8055;51.930;8.840;2023-05-09T08:04:47;74997.06;;;-145.72;86.67
15914;BME280;8055;51.930;8.840;2023-05-09T08:07:13;74970.19;;;-145.72;82.43
15914;BME280;8055;51.930;8.840;2023-05-09T08:09:38;74955.69;;;-145.72;82.28
15914;BME280;8055;51.930;8.840;2023-05-09T08:12:04;74914.31;;;-145.72;83.13
15914;BME280;8055;51.930;8.840;2023-05-09T08:14:30;74887.44;;;-145.72;81.57
15914;BME280;8055;51.930;8.840;2023-05-09T08:16:55;74862.59;;;-145.72;81.26
15914;BME280;8055;51.930;8.840;2023-05-09T08:19:21;74858.47;;;-145.72;77.46
15914;BME280;8055;51.930;8.840;2023-05-09T08:21:48;74870.88;;;-145.72;76.16
15914;BME280;8055;51.930;8.840;2023-05-09T08:24:13;74856.41;;;-145.72;77.12
15914;BME280;8055;51.930;8.840;2023-05-09T08:26:39;74862.59;;;-145.72;79.50
15914;BME280;8055;51.930;8.840;2023-05-09T08:29:04;74875.00;;;-145.72;77.74
15914;BME280;8055;51.930;8.840;2023-05-09T08:31:30;74887.44;;;-145.72;76.32
15914;BME280;8055;51.930;8.840;2023-05-09T08:33:55;74879.16;;;-145.72;79.02
15914;BME280;8055;51.930;8.840;2023-05-09T08:36:20;74889.50;;;-145.72;78.29
15914;BME280;8055;51.930;8.840;2023-05-09T08:38:46;74891.56;;;-145.72;77.40
15914;BME280;8055;51.930;8.840;2023-05-09T08:41:11;74899.84;;;-145.72;81.93
15914;BME280;8055;51.930;8.840;2023-05-09T08:43:37;74906.03;;;-145.72;80.64
15914;BME280;8055;51.930;8.840;2023-05-09T08:46:06;74912.25;;;-145.72;79.64
15914;BME280;8055;51.930;8.840;2023-05-09T08:48:34;74935.00;;;-145.72;80.09
15914;BME280;8055;51.930;8.840;2023-05-09T08:51:03;74932.94;;;-145.72;82.63
15914;BME280;8055;51.930;8.840;2023-05-09T08:53:29;74939.16;;;-145.72;82.88
15914;BME280;8055;51.930;8.840;2023-05-09T08:55:57;74953.63;;;-145.72;81.46
15914;BME280;8055;51.930;8.840;2023-05-09T08:58:23;74955.69;;;-145.72;83.35
15914;BME280;8055;51.930;8.840;2023-05-09T09:00:48;74970.19;;;-145.72;84.27
15914;BME280;8055;51.930;8.840;2023-05-09T09:03:16;74974.31;;;-145.72;82.52
15914;BME280;8055;51.930;8.840;2023-05-09T09:05:41;74982.59;;;-145.72;83.58
15914;BME280;8055;51.930;8.840;2023-05-09T09:08:09;74980.53;;;-145.72;82.82
15914;BME280;8055;51.930;8.840;2023-05-09T09:10:38;74980.53;;;-145.72;84.40
15914;BME280;8055;51.930;8.840;2023-05-09T09:13:04;74972.25;;;-145.72;83.96
15914;BME280;8055;51.930;8.840;2023-05-09T09:15:34;74966.03;;;-145.72;83.39
15914;BME280;8055;51.930;8.840;2023-05-09T09:18:05;74955.69;;;-145.72;84.70
15914;BME280;8055;51.930;8.840;2023-05-09T09:20:32;74953.63;;;-145.72;86.40
15914;BME280;8055;51.930;8.840;2023-05-09T09:22:59;74937.06;;;-145.72;84.78
15914;BME280;8055;51.930;8.840;2023-05-09T09:25:27;74930.88;;;-145.72;85.06
15914;BME280;8055;51.930;8.840;2023-05-09T09:27:53;74924.66;;;-145.72;82.56
15914;BME280;8055;51.930;8.840;2023-05-09T09:30:18;74914.31;;;-145.72;82.59
15914;BME280;8055;51.930;8.840;2023-05-09T09:32:43;74910.19;;;-145.72;78.84
15914;BME280;8055;51.930;8.840;2023-05-09T09:35:10;74889.50;;;-145.72;82.43
15914;BME280;8055;51.930;8.840;2023-05-09T09:37:38;74883.28;;;-145.72;81.36
15914;BME280;8055;51.930;8.840;2023-05-09T09:40:11;74846.06;;;-145.72;80.05
15914;BME280;8055;51.930;8.840;2023-05-09T09:42:44;74800.53;;;-145.72;81.01
15914;BME280;8055;51.930;8.840;2023-05-09T09:45:11;74786.06;;;-145.72;78.80
15914;BME280;8055;51.930;8.840;2023-05-09T09:47:38;74759.16;;;-145.72;77.76
15914;BME280;8055;51.930;8.840;2023-05-09T09:50:09;74746.75;;;-145.72;75.94
15914;BME280;8055;51.930;8.840;2023-05-09T09:52:36;74734.34;;;-145.72;72.21
15914;BME280;8055;51.930;8.840;2023-05-09T09:55:01;74719.88;;;-145.72;72.45
15914;BME280;8055;51.930;8.840;2023-05-09T09:57:37;74711.59;;;-145.72;72.78
15914;BME280;8055;51.930;8.840;2023-05-09T10:00:05;74721.94;;;-145.72;72.70
15914;BME280;8055;51.930;8.840;2023-05-09T10:02:30;74728.13;;;-145.72;71.63
15914;BME280;8055;51.930;8.840;2023-05-09T10:05:05;74717.78;;;-145.72;71.41
15914;BME280;8055;51.930;8.840;2023-05-09T10:07:32;74717.78;;;-145.72;72.78
15914;BME280;8055;51.930;8.840;2023-05-09T10:09:58;74719.88;;;-145.72;72.45
15914;BME280;8055;51.930;8.840;2023-05-09T10:12:25;74740.56;;;-145.72;69.36
15914;BME280;8055;51.930;8.840;2023-05-09T10:14:52;74736.41;;;-145.72;71.37
15914;BME280;8055;51.930;8.840;2023-05-09T10:17:18;74740.56;;;-145.72;72.10
15914;BME280;8055;51.930;8.840;2023-05-09T10:19:46;74750.88;;;-145.72;71.05
15914;BME280;8055;51.930;8.840;2023-05-09T10:22:13;74740.56;;;-145.72;72.56
15914;BME280;8055;51.930;8.840;2023-05-09T10:24:47;74738.47;;;-145.72;71.57
15914;BME280;8055;51.930;8.840;2023-05-09T10:27:18;74728.13;;;-145.72;73.00
15914;BME280;8055;51.930;8.840;2023-05-09T10:29:53;74721.94;;;-145.72;71.35
15914;BME280;8055;51.930;8.840;2023-05-09T10:32:37;74724.00;;;-145.72;71.22
15914;BME280;8055;51.930;8.840;2023-05-09T10:35:07;74717.78;;;-145.72;72.30
15914;BME280;8055;51.930;8.840;2023-05-09T10:37:35;74715.72;;;-145.72;70.39
15914;BME280;8055;51.930;8.840;2023-05-09T10:40:03;74695.03;;;-145.72;71.76
15914;BME280;8055;51.930;8.840;2023-05-09T10:42:29;74684.69;;;-145.72;69.81
15914;BME280;8055;51.930;8.840;2023-05-09T10:44:55;74664.00;;;-145.72;71.11
15914;BME280;8055;51.930;8.840;2023-05-09T10:47:23;74626.78;;;-145.72;70.50
15914;BME280;8055;51.930;8.840;2023-05-09T10:49:51;74628.84;;;-145.72;68.07
15914;BME280;8055;51.930;8.840;2023-05-09T10:52:17;74587.47;;;-145.72;68.21
15914;BME280;8055;51.930;8.840;2023-05-09T10:54:57;74558.50;;;-145.72;68.20
15914;BME280;8055;51.930;8.840;2023-05-09T10:57:25;74527.47;;;-145.72;66.25
15914;BME280;8055;51.930;8.840;2023-05-09T10:59:51;74498.53;;;-145.72;65.04
15914;BME280;8055;51.930;8.840;2023-05-09T11:02:20;74496.44;;;-145.72;65.85
15914;BME280;8055;51.930;8.840;2023-05-09T11:04:46;74500.59;;;-145.72;64.21
15914;BME280;8055;51.930;8.840;2023-05-09T11:07:27;74502.66;;;-145.72;64.36
15914;BME280;8055;51.930;8.840;2023-05-09T11:10:06;74498.53;;;-145.72;65.67
15914;BME280;8055;51.930;8.840;2023-05-09T11:12:32;74535.75;;;-145.72;63.74
15914;BME280;8055;51.930;8.840;2023-05-09T11:15:05;74521.28;;;-145.72;64.44
15914;BME280;8055;51.930;8.840;2023-05-09T11:17:32;74492.31;;;-145.72;65.72
15914;BME280;8055;51.930;8.840;2023-05-09T11:20:04;74496.44;;;-145.72;64.90
15914;BME280;8055;51.930;8.840;2023-05-09T11:22:40;74467.50;;;-145.72;64.58
15914;BME280;8055;51.930;8.840;2023-05-09T11:25:10;74436.47;;;-145.72;64.87
15914;BME280;8055;51.930;8.840;2023-05-09T11:27:38;74434.41;;;-145.72;63.56
15914;BME280;8055;51.930;8.840;2023-05-09T11:30:05;74428.19;;;-145.72;62.90
15914;BME280;8055;51.930;8.840;2023-05-09T11:32:42;74417.84;;;-145.72;63.16
15914;BME280;8055;51.930;8.840;2023-05-09T11:35:10;74434.41;;;-145.72;63.37
15914;BME280;8055;51.930;8.840;2023-05-09T11:38:02;74426.13;;;-145.72;64.04
15914;BME280;8055;51.930;8.840;2023-05-09T11:40:29;74434.41;;;-145.72;64.62
15914;BME280;8055;51.930;8.840;2023-05-09T11:42:56;74395.09;;;-145.72;63.80
15914;BME280;8055;51.930;8.840;2023-05-09T11:45:24;74339.25;;;-145.72;65.07
15914;BME280;8055;51.930;8.840;2023-05-09T11:47:50;74285.47;;;-145.72;63.54
15914;BME280;8055;51.930;8.840;2023-05-09T11:50:17;74256.50;;;-145.72;59.98
15914;BME280;8055;51.930;8.840;2023-05-09T11:52:44;74268.91;;;-145.72;59.44
15914;BME280;8055;51.930;8.840;2023-05-09T11:55:16;74283.41;;;-145.72;61.59
15914;BME280;8055;51.930;8.840;2023-05-09T11:57:47;74314.41;;;-145.72;59.79
15914;BME280;8055;51.930;8.840;2023-05-09T12:02:43;74333.03;;;-145.72;61.34
15914;BME280;8055;51.930;8.840;2023-05-09T12:05:12;74355.78;;;-145.72;62.06
15914;BME280;8055;51.930;8.840;2023-05-09T12:07:38;74374.41;;;-145.72;60.27
15914;BME280;8055;51.930;8.840;2023-05-09T12:10:05;74351.66;;;-145.72;60.92
15914;BME280;8055;51.930;8.840;2023-05-09T12:12:33;74357.84;;;-145.72;60.65
15914;BME280;8055;51.930;8.840;2023-05-09T12:15:06;74308.22;;;-145.72;62.73
15914;BME280;8055;51.930;8.840;2023-05-09T12:17:33;74285.47;;;-145.72;61.36
15914;BME280;8055;51.930;8.840;2023-05-09T12:19:59;74273.06;;;-145.72;60.30
15914;BME280;8055;51.930;8.840;2023-05-09T12:22:25;74283.41;;;-145.72;58.25
15914;BME280;8055;51.930;8.840;2023-05-09T12:24:51;74285.47;;;-145.72;57.71
15914;BME280;8055;51.930;8.840;2023-05-09T12:27:18;74306.16;;;-145.72;58.14
15914;BME280;8055;51.930;8.840;2023-05-09T12:29:44;74306.16;;;-145.72;58.32
15914;BME280;8055;51.930;8.840;2023-05-09T12:32:13;74324.75;;;-145.72;58.87
15914;BME280;8055;51.930;8.840;2023-05-09T12:34:39;74322.69;;;-145.72;58.06
15914;BME280;8055;51.930;8.840;2023-05-09T12:37:16;74287.53;;;-145.72;58.50
15914;BME280;8055;51.930;8.840;2023-05-09T12:42:27;74297.88;;;-145.72;59.04
15914;BME280;8055;51.930;8.840;2023-05-09T12:44:53;74264.78;;;-145.72;58.54
15914;BME280;8055;51.930;8.840;2023-05-09T12:47:18;74215.13;;;-145.72;59.22
15914;BME280;8055;51.930;8.840;2023-05-09T12:49:48;74198.59;;;-145.72;57.43
15914;BME280;8055;51.930;8.840;2023-05-09T12:52:17;74211.00;;;-145.72;57.72
15914;BME280;8055;51.930;8.840;2023-05-09T12:54:45;74198.59;;;-145.72;57.84
15914;BME280;8055;51.930;8.840;2023-05-09T12:57:20;74219.28;;;-145.72;58.26
15914;BME280;8055;51.930;8.840;2023-05-09T12:59:47;74242.03;;;-145.72;58.00